Time;durP1;ratioP1;P1;durP2;ratioP2;P2;SDS_P1;SDS_P2;PMS_P1;PMS_P2;Temp;Humidity;BMP_temperature;BMP_pressure;BME280_temperature;BME280_humidity;BME280_pressure;Samples;Min_cycle;Max_cycle;Signal;HPM_P1;HPM_P2
2021/03/19 00:01:07;;;;;;;20.83;15.57;;;3.80;99.90;;;;;;5036677;28;20205;-81
2021/03/19 00:03:33;;;;;;;28.27;18.57;;;3.80;99.90;;;;;;5037158;28;20204;-81
2021/03/19 00:05:59;;;;;;;22.73;16.63;;;3.80;99.90;;;;;;5061199;28;20205;-81
2021/03/19 00:08:25;;;;;;;30.63;17.93;;;3.90;99.90;;;;;;5068063;28;21048;-81
2021/03/19 00:10:52;;;;;;;31.10;17.93;;;3.80;99.90;;;;;;5056256;28;20416;-80
2021/03/19 00:13:19;;;;;;;23.97;16.13;;;3.70;99.90;;;;;;5056823;28;21004;-81
2021/03/19 00:15:45;;;;;;;24.27;11.33;;;3.50;99.90;;;;;;5054028;28;20394;-81
2021/03/19 00:18:11;;;;;;;34.37;19.60;;;3.50;99.90;;;;;;5089492;28;20478;-80
2021/03/19 00:20:42;;;;;;;28.70;20.53;;;3.50;99.90;;;;;;5054539;28;20228;-80
2021/03/19 00:23:09;;;;;;;22.20;17.73;;;3.40;99.90;;;;;;5056036;28;20896;-80
2021/03/19 00:25:36;;;;;;;26.47;17.90;;;3.40;99.90;;;;;;5054155;28;20391;-80
2021/03/19 00:28:03;;;;;;;25.03;18.27;;;3.40;99.90;;;;;;5070357;28;20592;-80
2021/03/19 00:30:30;;;;;;;29.63;19.80;;;3.30;99.90;;;;;;5070890;28;20418;-80
2021/03/19 00:32:56;;;;;;;23.33;16.80;;;3.20;99.90;;;;;;5072840;28;20399;-80
2021/03/19 00:35:21;;;;;;;24.30;16.00;;;3.10;99.90;;;;;;5055993;28;20381;-80
2021/03/19 00:37:48;;;;;;;28.23;18.47;;;3.10;99.90;;;;;;5040866;28;20407;-80
2021/03/19 00:40:15;;;;;;;23.17;16.13;;;3.10;99.90;;;;;;5053643;28;20201;-80
2021/03/19 00:42:41;;;;;;;27.20;18.63;;;3.30;99.90;;;;;;5075002;28;20438;-80
2021/03/19 00:45:11;;;;;;;17.63;13.10;;;3.30;99.90;;;;;;5036905;28;20408;-80
2021/03/19 00:47:36;;;;;;;32.93;16.07;;;3.40;99.90;;;;;;5071604;28;20405;-80
2021/03/19 00:50:09;;;;;;;25.00;18.43;;;3.40;99.90;;;;;;5052676;28;20399;-80
2021/03/19 00:52:35;;;;;;;22.70;15.17;;;3.40;99.90;;;;;;5070227;28;20714;-80
2021/03/19 00:55:00;;;;;;;28.23;19.80;;;3.40;99.90;;;;;;5054457;28;20828;-80
2021/03/19 00:57:26;;;;;;;26.30;19.50;;;3.40;99.90;;;;;;5058099;28;20442;-79
2021/03/19 00:59:52;;;;;;;27.90;18.50;;;3.50;99.90;;;;;;5069647;28;20209;-80
2021/03/19 01:02:18;;;;;;;23.50;16.50;;;3.60;99.90;;;;;;5039924;28;20205;-81
2021/03/19 01:04:43;;;;;;;21.27;14.80;;;3.50;99.90;;;;;;5054864;28;20201;-81
2021/03/19 01:07:11;;;;;;;35.07;16.90;;;3.50;99.90;;;;;;5040278;28;20299;-80
2021/03/19 01:09:36;;;;;;;26.03;17.10;;;3.40;99.90;;;;;;5037819;28;20746;-80
2021/03/19 01:12:02;;;;;;;25.23;19.50;;;3.30;99.90;;;;;;5051986;28;20459;-79
2021/03/19 01:14:28;;;;;;;26.50;18.30;;;3.20;99.90;;;;;;5053934;28;20232;-80
2021/03/19 01:16:53;;;;;;;24.33;18.40;;;3.20;99.90;;;;;;5040185;28;21411;-80
2021/03/19 01:19:19;;;;;;;18.33;12.27;;;3.20;99.90;;;;;;5051334;28;20675;-80
2021/03/19 01:21:45;;;;;;;23.50;15.53;;;3.20;99.90;;;;;;5036248;28;20200;-80
2021/03/19 01:24:11;;;;;;;28.93;18.63;;;3.30;99.90;;;;;;5038582;28;20208;-80
2021/03/19 01:26:36;;;;;;;24.70;17.93;;;3.40;99.90;;;;;;5054699;28;20228;-80
2021/03/19 01:29:05;;;;;;;21.00;14.90;;;3.40;99.90;;;;;;5055997;28;20430;-80
2021/03/19 01:31:30;;;;;;;27.20;18.43;;;3.30;99.90;;;;;;5087196;28;20207;-79
2021/03/19 01:33:56;;;;;;;31.13;19.47;;;3.40;99.90;;;;;;5050600;28;20461;-79
2021/03/19 01:36:22;;;;;;;24.50;15.30;;;3.40;99.90;;;;;;5037852;28;20280;-79
2021/03/19 01:38:48;;;;;;;32.13;19.00;;;3.50;99.90;;;;;;5051611;28;20453;-80
2021/03/19 01:41:14;;;;;;;23.07;17.67;;;3.40;99.90;;;;;;5020855;28;20208;-80
2021/03/19 01:43:54;;;;;;;23.07;15.60;;;3.30;99.90;;;;;;5053341;28;20414;-80
2021/03/19 01:46:57;;;;;;;26.80;17.30;;;3.30;99.90;;;;;;5052403;28;20215;-80
2021/03/19 01:50:00;;;;;;;23.70;17.77;;;3.20;99.90;;;;;;5068095;28;20404;-80
2021/03/19 01:53:16;;;;;;;24.70;18.50;;;2.90;99.90;;;;;;5087198;28;20924;-80
2021/03/19 01:56:19;;;;;;;25.40;17.90;;;2.80;99.90;;;;;;5033240;28;20375;-80
2021/03/19 01:59:22;;;;;;;23.87;18.20;;;2.60;99.90;;;;;;5068642;28;20493;-80
2021/03/19 02:02:26;;;;;;;22.37;13.87;;;2.50;99.90;;;;;;5054648;28;20820;-80
2021/03/19 02:09:00;;;;;;;23.90;11.77;;;2.30;99.90;;;;;;4994480;28;20400;-80
2021/03/19 02:15:11;;;;;;;22.57;15.60;;;2.30;99.90;;;;;;5010554;28;20416;-80
2021/03/19 02:18:14;;;;;;;25.00;17.60;;;2.10;99.90;;;;;;4969871;28;20939;-80
2021/03/19 02:21:16;;;;;;;17.63;15.23;;;2.10;99.90;;;;;;4978016;28;20387;-79
2021/03/19 02:24:19;;;;;;;15.37;12.40;;;2.00;99.90;;;;;;4994857;28;20437;-80
2021/03/19 02:27:22;;;;;;;21.00;15.40;;;2.10;99.90;;;;;;4995164;28;20411;-80
2021/03/19 02:30:26;;;;;;;22.00;14.67;;;2.00;99.90;;;;;;4977019;28;21170;-80
2021/03/19 02:33:18;;;;;;;20.17;15.40;;;1.90;99.90;;;;;;4978691;28;20402;-80
2021/03/19 02:36:09;;;;;;;21.57;15.60;;;1.90;99.90;;;;;;4932475;28;20428;-79
2021/03/19 02:38:36;;;;;;;26.33;15.40;;;1.90;99.90;;;;;;4897688;28;20404;-79
2021/03/19 02:41:02;;;;;;;16.87;12.63;;;1.80;99.90;;;;;;4920413;28;20472;-79
2021/03/19 02:43:28;;;;;;;24.23;14.57;;;1.80;99.90;;;;;;4917209;28;20393;-80
2021/03/19 02:45:56;;;;;;;18.80;13.77;;;1.90;99.90;;;;;;4929737;28;20452;-79
2021/03/19 02:48:48;;;;;;;18.13;12.87;;;1.90;99.90;;;;;;4961933;28;20280;-80
2021/03/19 02:51:14;;;;;;;9.67;7.27;;;2.00;99.90;;;;;;4913337;29;20423;-79
2021/03/19 02:54:04;;;;;;;20.87;13.13;;;2.20;99.90;;;;;;4932120;28;20786;-80
2021/03/19 02:56:31;;;;;;;21.23;14.10;;;2.30;99.90;;;;;;4875293;29;20383;-79
2021/03/19 02:58:58;;;;;;;30.50;15.43;;;2.30;99.90;;;;;;4876356;29;20451;-80
2021/03/19 03:01:26;;;;;;;30.00;16.63;;;2.40;99.90;;;;;;4859216;29;20533;-79
2021/03/19 03:04:18;;;;;;;23.13;14.40;;;2.40;99.90;;;;;;4843068;29;21042;-79
2021/03/19 03:06:49;;;;;;;23.70;15.37;;;2.50;99.90;;;;;;4840611;29;20589;-79
2021/03/19 03:09:18;;;;;;;18.57;14.23;;;2.60;99.90;;;;;;4864272;29;21053;-80
2021/03/19 03:11:44;;;;;;;22.43;12.70;;;2.60;99.90;;;;;;4876485;29;20531;-80
2021/03/19 03:14:14;;;;;;;24.23;14.60;;;2.60;99.90;;;;;;4900870;29;20425;-79
2021/03/19 03:16:41;;;;;;;21.57;14.53;;;2.60;99.90;;;;;;4914283;28;20920;-79
2021/03/19 03:19:11;;;;;;;19.70;13.80;;;2.60;99.90;;;;;;4896148;29;21083;-79
2021/03/19 03:21:39;;;;;;;20.30;14.63;;;2.60;99.90;;;;;;4914087;29;20441;-79
2021/03/19 03:24:31;;;;;;;26.60;15.10;;;2.70;99.90;;;;;;4884414;29;20392;-79
2021/03/19 03:26:57;;;;;;;24.30;15.60;;;2.70;99.90;;;;;;4838206;29;21198;-79
2021/03/19 03:29:25;;;;;;;21.53;15.97;;;2.70;99.90;;;;;;4830200;29;20423;-79
2021/03/19 03:31:54;;;;;;;21.60;14.73;;;2.70;99.90;;;;;;4842383;29;20507;-80
2021/03/19 03:34:23;;;;;;;21.40;14.40;;;2.80;99.90;;;;;;4889968;29;20394;-79
2021/03/19 03:37:18;;;;;;;29.97;17.60;;;2.70;99.90;;;;;;4874055;29;20533;-80
2021/03/19 03:39:44;;;;;;;20.40;15.00;;;2.60;99.90;;;;;;4816316;29;20427;-81
2021/03/19 03:42:37;;;;;;;18.90;12.80;;;2.60;99.90;;;;;;4829257;29;20875;-79
2021/03/19 03:45:06;;;;;;;20.30;14.33;;;2.50;99.90;;;;;;4856681;29;20212;-80
2021/03/19 03:47:31;;;;;;;32.17;14.60;;;2.30;99.90;;;;;;4859670;29;20452;-79
2021/03/19 03:49:57;;;;;;;22.20;12.73;;;2.30;99.90;;;;;;4863506;29;20444;-79
2021/03/19 03:52:23;;;;;;;19.30;13.90;;;2.30;99.90;;;;;;4877187;29;20225;-80
2021/03/19 03:54:50;;;;;;;21.50;13.30;;;2.30;99.90;;;;;;4877812;29;20213;-79
2021/03/19 03:57:18;;;;;;;20.63;13.70;;;2.30;99.90;;;;;;4876569;29;20221;-80
2021/03/19 03:59:46;;;;;;;20.40;14.93;;;2.20;99.90;;;;;;4873949;29;21004;-80
2021/03/19 04:02:22;;;;;;;17.60;13.37;;;2.10;99.90;;;;;;4891344;29;20408;-80
2021/03/19 04:05:21;;;;;;;23.57;14.73;;;2.00;99.90;;;;;;4867458;29;20482;-79
2021/03/19 04:07:48;;;;;;;25.70;16.47;;;1.90;99.90;;;;;;4840569;29;20395;-79
2021/03/19 04:10:14;;;;;;;23.40;13.90;;;1.80;99.90;;;;;;4844120;29;20499;-79
2021/03/19 04:13:06;;;;;;;20.10;14.03;;;1.70;99.90;;;;;;4858627;29;20536;-79
2021/03/19 04:15:35;;;;;;;24.30;13.83;;;1.60;99.90;;;;;;4847361;29;20405;-79
2021/03/19 04:18:05;;;;;;;24.87;14.97;;;1.50;99.90;;;;;;4900272;29;20539;-80
2021/03/19 04:20:31;;;;;;;19.77;14.03;;;1.40;99.90;;;;;;4898368;29;20431;-79
2021/03/19 04:22:57;;;;;;;22.10;13.20;;;1.40;99.90;;;;;;4902684;28;20401;-79
2021/03/19 04:25:25;;;;;;;22.00;16.10;;;1.30;99.90;;;;;;4917496;28;20427;-80
2021/03/19 04:27:54;;;;;;;21.70;11.13;;;1.30;99.90;;;;;;4930243;28;20277;-79
2021/03/19 04:30:29;;;;;;;21.70;14.47;;;1.20;99.90;;;;;;4901077;29;21118;-79
2021/03/19 04:32:57;;;;;;;22.50;14.10;;;1.10;99.90;;;;;;4918551;28;21016;-79
2021/03/19 04:35:24;;;;;;;13.23;10.60;;;;;;;;;;4930388;28;20417;-79
2021/03/19 04:37:53;;;;;;;25.30;14.07;;;1.00;99.90;;;;;;4929454;28;20398;-79
2021/03/19 04:40:20;;;;;;;20.47;14.13;;;0.90;99.90;;;;;;4934301;28;20915;-79
2021/03/19 04:42:47;;;;;;;21.00;14.23;;;0.90;99.90;;;;;;4915318;28;20486;-79
2021/03/19 04:45:14;;;;;;;17.50;10.90;;;0.90;99.90;;;;;;4960835;28;20415;-79
2021/03/19 04:47:40;;;;;;;24.27;13.00;;;0.90;99.90;;;;;;4972109;28;20405;-79
2021/03/19 04:50:08;;;;;;;18.27;13.53;;;0.90;99.90;;;;;;4973661;28;20439;-79
2021/03/19 04:52:33;;;;;;;20.93;13.80;;;0.80;99.90;;;;;;5031948;28;20326;-79
2021/03/19 04:55:01;;;;;;;17.73;14.00;;;0.70;99.90;;;;;;5059339;28;20920;-79
2021/03/19 04:57:28;;;;;;;19.43;13.17;;;;;;;;;;5040434;28;20258;-79
2021/03/19 04:59:54;;;;;;;13.53;10.63;;;0.80;99.90;;;;;;5066962;28;20443;-79
2021/03/19 05:02:36;;;;;;;21.47;14.90;;;0.80;99.90;;;;;;5074944;28;20441;-79
2021/03/19 05:05:04;;;;;;;21.37;14.37;;;0.80;99.90;;;;;;5075556;28;20205;-79
2021/03/19 05:07:31;;;;;;;22.23;15.10;;;0.70;99.90;;;;;;5056143;28;20417;-79
2021/03/19 05:10:03;;;;;;;22.40;14.43;;;0.70;99.90;;;;;;5020760;28;20404;-79
2021/03/19 05:12:30;;;;;;;22.10;15.90;;;0.60;99.90;;;;;;5056113;28;20406;-79
2021/03/19 05:14:58;;;;;;;18.83;14.67;;;0.50;99.90;;;;;;5057439;28;22085;-79
2021/03/19 05:17:23;;;;;;;22.40;15.90;;;0.50;99.90;;;;;;5039506;28;20494;-79
2021/03/19 05:19:49;;;;;;;24.33;15.10;;;0.60;99.90;;;;;;5093069;28;20542;-79
2021/03/19 05:22:52;;;;;;;19.20;13.80;;;0.50;99.90;;;;;;5056084;28;20274;-79
2021/03/19 05:25:22;;;;;;;20.67;14.50;;;0.70;99.90;;;;;;5011742;28;20502;-79
2021/03/19 05:27:50;;;;;;;17.83;13.53;;;0.70;99.90;;;;;;5008478;28;20440;-79
2021/03/19 05:30:17;;;;;;;19.33;13.60;;;0.60;99.90;;;;;;5010165;28;20575;-79
2021/03/19 05:32:43;;;;;;;20.67;14.40;;;0.50;99.90;;;;;;4992914;28;20393;-79
2021/03/19 05:35:11;;;;;;;21.60;15.10;;;0.30;99.90;;;;;;5014052;28;20443;-80
2021/03/19 05:37:38;;;;;;;21.23;14.30;;;0.30;99.90;;;;;;5024185;28;20700;-79
2021/03/19 05:40:08;;;;;;;14.57;13.03;;;0.30;99.90;;;;;;4998893;28;20448;-79
2021/03/19 05:42:37;;;;;;;17.77;12.90;;;0.30;99.90;;;;;;5007634;28;20421;-79
2021/03/19 05:45:18;;;;;;;22.20;14.43;;;0.30;99.90;;;;;;5011768;28;21390;-79
2021/03/19 05:48:10;;;;;;;19.20;12.53;;;0.30;99.90;;;;;;5009784;28;20421;-78
2021/03/19 05:50:38;;;;;;;17.00;13.93;;;0.20;99.90;;;;;;4953889;28;20488;-79
2021/03/19 05:53:14;;;;;;;21.27;13.50;;;0.10;99.90;;;;;;4937895;28;20989;-79
2021/03/19 05:55:42;;;;;;;20.27;12.17;;;0.10;99.90;;;;;;4935344;28;20451;-79
2021/03/19 05:58:26;;;;;;;21.00;14.57;;;0.10;99.90;;;;;;4972473;28;20849;-79
2021/03/19 06:00:59;;;;;;;18.13;12.87;;;0.00;99.90;;;;;;5010414;28;20473;-80
2021/03/19 06:03:25;;;;;;;19.90;12.80;;;;;;;;;;5005561;28;20428;-80
2021/03/19 06:06:03;;;;;;;16.43;12.20;;;;;;;;;;5008388;28;20408;-79
2021/03/19 06:08:39;;;;;;;18.93;15.00;;;0.60;99.90;;;;;;5006321;28;20440;-79
2021/03/19 06:11:25;;;;;;;19.77;11.90;;;0.60;99.90;;;;;;5010153;28;20403;-79
2021/03/19 06:14:01;;;;;;;15.90;11.70;;;0.70;99.90;;;;;;5027041;28;20481;-79
2021/03/19 06:16:33;;;;;;;18.90;13.40;;;;;;;;;;5023853;28;20467;-80
2021/03/19 06:19:02;;;;;;;12.90;10.87;;;2.20;99.90;;;;;;5007297;28;20971;-79
2021/03/19 06:21:33;;;;;;;22.27;14.23;;;2.10;99.90;;;;;;5021919;28;20396;-79
2021/03/19 06:24:46;;;;;;;20.40;14.83;;;2.10;99.90;;;;;;5007886;28;20533;-83
2021/03/19 06:27:22;;;;;;;24.50;13.70;;;2.20;99.90;;;;;;4961143;28;20529;-81
2021/03/19 06:29:52;;;;;;;16.00;13.13;;;2.30;99.90;;;;;;5025210;28;20447;-80
2021/03/19 06:32:21;;;;;;;19.27;14.57;;;2.80;99.90;;;;;;5011852;28;20440;-80
2021/03/19 06:34:59;;;;;;;15.67;13.43;;;3.40;99.90;;;;;;5014394;28;20408;-80
2021/03/19 06:37:33;;;;;;;20.20;13.30;;;4.30;99.90;;;;;;4998369;28;20396;-79
2021/03/19 06:40:27;;;;;;;20.63;18.00;;;;;;;;;;5007051;28;20396;-80
2021/03/19 06:43:31;;;;;;;13.40;9.80;;;6.00;99.90;;;;;;4964527;28;20439;-82
2021/03/19 06:46:18;;;;;;;11.40;10.23;;;6.00;99.90;;;;;;4925193;28;20441;-81
2021/03/19 06:49:02;;;;;;;16.63;10.03;;;6.10;99.90;;;;;;4910248;29;20518;-81
2021/03/19 06:51:29;;;;;;;13.63;9.10;;;6.20;99.90;;;;;;4894232;29;20418;-81
2021/03/19 06:54:09;;;;;;;13.23;9.40;;;6.80;99.90;;;;;;4893229;29;21152;-80
2021/03/19 06:56:37;;;;;;;11.33;8.93;;;7.10;99.90;;;;;;4908357;29;20920;-80
2021/03/19 06:59:19;;;;;;;9.93;8.93;;;8.00;99.90;;;;;;4908315;29;20445;-83
2021/03/19 07:01:46;;;;;;;14.70;8.70;;;8.40;99.90;;;;;;4911831;29;20787;-80
2021/03/19 07:04:38;;;;;;;9.50;8.60;;;8.50;99.90;;;;;;4905896;28;20430;-83
2021/03/19 07:07:19;;;;;;;18.50;9.33;;;8.30;99.90;;;;;;4913273;28;23457;-80
2021/03/19 07:10:06;;;;;;;9.00;7.60;;;8.70;99.90;;;;;;4926069;28;20508;-80
2021/03/19 07:12:53;;;;;;;8.63;7.50;;;8.40;99.90;;;;;;4907585;28;20384;-81
2021/03/19 07:15:40;;;;;;;9.17;8.13;;;8.50;99.90;;;;;;4927306;28;20464;-81
2021/03/19 07:18:35;;;;;;;9.17;8.20;;;9.40;99.90;;;;;;4980820;28;20470;-82
2021/03/19 07:21:42;;;;;;;8.33;6.20;;;9.60;99.90;;;;;;5052694;28;20441;-81
2021/03/19 07:24:11;;;;;;;8.20;4.63;;;9.20;99.90;;;;;;5041976;28;20397;-81
2021/03/19 07:26:46;;;;;;;7.50;6.63;;;9.40;99.90;;;;;;5052946;28;20380;-82
2021/03/19 07:29:39;;;;;;;8.13;6.93;;;9.90;99.90;;;;;;5075922;28;20433;-81
2021/03/19 07:32:31;;;;;;;8.17;7.00;;;10.20;98.60;;;;;;5058987;28;20547;-81
2021/03/19 07:35:14;;;;;;;10.97;7.93;;;10.50;98.10;;;;;;5076230;28;20377;-81
2021/03/19 07:38:05;;;;;;;9.20;7.07;;;10.30;97.90;;;;;;5043070;28;20442;-81
2021/03/19 07:41:19;;;;;;;7.77;7.00;;;10.90;96.80;;;;;;5078198;28;20419;-81
2021/03/19 07:47:42;;;;;;;9.43;8.07;;;10.70;94.20;;;;;;5011488;28;20439;-81
2021/03/19 07:50:24;;;;;;;6.53;5.57;;;11.20;93.70;;;;;;4975595;28;20407;-82
2021/03/19 07:53:14;;;;;;;8.30;7.17;;;11.30;93.00;;;;;;5013257;28;20422;-82
2021/03/19 07:56:20;;;;;;;9.00;7.10;;;11.00;92.00;;;;;;4984803;28;20440;-82
2021/03/19 07:58:56;;;;;;;6.93;5.97;;;11.30;92.70;;;;;;4926619;28;20431;-82
2021/03/19 08:01:56;;;;;;;7.77;7.07;;;11.20;92.00;;;;;;4960079;28;20427;-82
2021/03/19 08:04:40;;;;;;;7.90;7.10;;;11.00;92.10;;;;;;4938364;28;20497;-81
2021/03/19 08:07:37;;;;;;;7.80;6.77;;;11.50;91.70;;;;;;4926557;28;20411;-82
2021/03/19 08:10:30;;;;;;;7.43;6.60;;;;;;;;;;4958532;28;20391;-80
2021/03/19 08:13:35;;;;;;;8.47;6.00;;;11.90;91.20;;;;;;4939473;28;20363;-80
2021/03/19 08:16:25;;;;;;;5.70;4.30;;;12.30;90.20;;;;;;4921647;28;20453;-80
2021/03/19 08:19:09;;;;;;;7.80;5.63;;;;;;;;;;4923305;28;20465;-81
2021/03/19 08:21:41;;;;;;;10.40;6.57;;;12.40;91.40;;;;;;5034556;28;20428;-81
2021/03/19 08:24:24;;;;;;;10.93;9.03;;;;;;;;;;5013164;28;20512;-82
2021/03/19 08:27:10;;;;;;;6.83;6.13;;;12.70;81.80;;;;;;4999785;28;20428;-80
2021/03/19 08:29:36;;;;;;;6.03;5.37;;;;;;;;;;5010374;28;20421;-83
2021/03/19 08:33:01;;;;;;;7.07;5.77;;;12.40;83.00;;;;;;5010480;28;20406;-80
2021/03/19 08:35:41;;;;;;;7.80;5.83;;;12.80;82.90;;;;;;4977792;28;20396;-81
2021/03/19 08:38:24;;;;;;;7.47;5.60;;;13.60;80.30;;;;;;5043122;28;20869;-81
2021/03/19 08:41:21;;;;;;;17.10;7.30;;;14.30;78.30;;;;;;5079023;28;20373;-81
2021/03/19 08:43:53;;;;;;;6.70;6.00;;;14.60;76.00;;;;;;5015971;28;20463;-81
2021/03/19 08:46:30;;;;;;;5.53;5.03;;;15.30;72.60;;;;;;5032772;28;20423;-81
2021/03/19 08:49:03;;;;;;;4.33;4.03;;;15.40;70.10;;;;;;5015960;28;20587;-81
2021/03/19 08:51:29;;;;;;;5.80;5.23;;;14.40;69.00;;;;;;5034588;28;20440;-81
2021/03/19 08:54:16;;;;;;;7.90;5.90;;;14.10;70.40;;;;;;5014160;28;20418;-81
2021/03/19 08:56:47;;;;;;;9.47;4.77;;;14.60;70.10;;;;;;5019334;28;20404;-81
2021/03/19 08:59:34;;;;;;;5.10;4.70;;;14.30;67.60;;;;;;5017209;28;20451;-81
2021/03/19 09:02:01;;;;;;;3.93;3.50;;;13.40;68.40;;;;;;5000155;28;20405;-81
2021/03/19 09:04:51;;;;;;;6.60;4.87;;;13.50;69.20;;;;;;5020163;28;20403;-81
2021/03/19 09:07:26;;;;;;;5.10;4.20;;;14.50;68.50;;;;;;5018814;28;20771;-81
2021/03/19 09:10:04;;;;;;;5.33;4.83;;;12.30;65.70;;;;;;5021710;28;21199;-83
2021/03/19 09:12:31;;;;;;;6.23;5.67;;;;;;;;;;5002574;28;20410;-83
2021/03/19 09:15:16;;;;;;;5.70;4.00;;;11.90;72.80;;;;;;5000942;28;21181;-83
2021/03/19 09:17:54;;;;;;;5.67;5.07;;;11.40;79.30;;;;;;5000015;28;20409;-81
2021/03/19 09:20:41;;;;;;;7.00;3.97;;;12.20;70.90;;;;;;5033726;28;20429;-81
2021/03/19 09:23:57;;;;;;;4.50;3.83;;;12.40;70.90;;;;;;5059502;28;20457;-81
2021/03/19 09:26:42;;;;;;;5.73;3.73;;;12.60;69.60;;;;;;5001097;28;21264;-82
2021/03/19 09:29:16;;;;;;;5.30;4.00;;;13.70;69.00;;;;;;5019063;28;20434;-81
2021/03/19 09:31:52;;;;;;;4.57;3.70;;;13.40;66.40;;;;;;5032076;28;20427;-81
2021/03/19 09:34:22;;;;;;;3.53;3.23;;;14.70;67.70;;;;;;5017950;28;20417;-81
2021/03/19 09:37:23;;;;;;;4.93;4.50;;;14.90;63.80;;;;;;5032391;28;20454;-82
2021/03/19 09:39:55;;;;;;;3.70;3.37;;;14.40;62.00;;;;;;5007261;28;20423;-82
2021/03/19 09:42:28;;;;;;;4.63;4.23;;;13.60;63.00;;;;;;5039022;28;20444;-82
2021/03/19 09:45:00;;;;;;;4.13;3.67;;;14.70;61.70;;;;;;5032586;28;20506;-82
2021/03/19 09:47:37;;;;;;;4.50;3.77;;;15.80;62.60;;;;;;5042123;28;20494;-82
2021/03/19 09:50:27;;;;;;;3.70;3.17;;;14.60;59.40;;;;;;5042626;28;20436;-82
2021/03/19 09:53:01;;;;;;;3.30;3.00;;;14.20;61.40;;;;;;5001399;28;20407;-82
2021/03/19 09:55:51;;;;;;;3.30;3.10;;;14.20;61.50;;;;;;5042791;28;20396;-82
2021/03/19 09:58:49;;;;;;;3.77;3.30;;;13.00;60.80;;;;;;5015246;28;20506;-82
2021/03/19 10:01:40;;;;;;;3.30;2.80;;;13.20;61.30;;;;;;5016832;28;20410;-81
2021/03/19 10:04:09;;;;;;;8.17;2.77;;;13.40;60.50;;;;;;5058549;28;20410;-82
2021/03/19 10:06:47;;;;;;;5.10;3.60;;;12.20;62.10;;;;;;5044329;28;20464;-82
2021/03/19 10:09:20;;;;;;;2.97;2.70;;;10.50;63.20;;;;;;5040712;28;21352;-81
2021/03/19 10:12:14;;;;;;;4.20;3.50;;;10.40;64.40;;;;;;5058435;28;20418;-81
2021/03/19 10:14:43;;;;;;;3.47;2.77;;;11.10;66.30;;;;;;5035312;28;20410;-82
2021/03/19 10:17:19;;;;;;;3.80;3.50;;;13.60;64.10;;;;;;5058587;28;20576;-82
2021/03/19 10:19:50;;;;;;;3.27;2.47;;;13.50;60.60;;;;;;5039049;28;20475;-81
2021/03/19 10:22:38;;;;;;;3.50;2.50;;;13.20;58.90;;;;;;5038536;28;20368;-81
2021/03/19 10:25:23;;;;;;;8.73;3.40;;;12.20;59.20;;;;;;5041170;28;20469;-82
2021/03/19 10:27:52;;;;;;;1.80;1.70;;;14.00;60.90;;;;;;5042604;28;20909;-82
2021/03/19 10:30:23;;;;;;;3.70;2.67;;;13.90;58.00;;;;;;5040301;28;20874;-81
2021/03/19 10:33:44;;;;;;;2.40;2.20;;;14.90;57.60;;;;;;5057548;28;20411;-82
2021/03/19 10:36:18;;;;;;;3.73;3.43;;;15.90;56.00;;;;;;4977790;28;20450;-82
2021/03/19 10:38:54;;;;;;;3.77;3.30;;;15.00;55.00;;;;;;4994624;28;20410;-82
2021/03/19 10:42:03;;;;;;;3.17;2.87;;;16.00;55.80;;;;;;5015816;28;20408;-82
2021/03/19 10:44:36;;;;;;;3.03;2.83;;;16.10;54.80;;;;;;4924006;28;20429;-82
2021/03/19 10:47:28;;;;;;;3.70;3.33;;;16.20;54.30;;;;;;4921003;28;20436;-82
2021/03/19 10:50:06;;;;;;;3.20;3.00;;;15.60;54.00;;;;;;4928964;28;20529;-82
2021/03/19 10:53:02;;;;;;;5.80;3.47;;;15.40;53.50;;;;;;4913520;28;20416;-82
2021/03/19 10:55:35;;;;;;;4.37;3.17;;;15.30;54.00;;;;;;4855376;29;20461;-82
2021/03/19 10:58:24;;;;;;;2.53;2.30;;;14.70;53.30;;;;;;4865032;29;20425;-82
2021/03/19 11:00:52;;;;;;;2.57;2.37;;;12.50;53.90;;;;;;4860433;29;21042;-82
2021/03/19 11:03:33;;;;;;;3.30;3.10;;;13.50;55.90;;;;;;4864698;29;20476;-82
2021/03/19 11:06:07;;;;;;;3.20;2.90;;;14.70;55.10;;;;;;4849863;29;20451;-82
2021/03/19 11:08:33;;;;;;;4.50;2.47;;;15.10;53.90;;;;;;4862264;29;20540;-82
2021/03/19 11:10:59;;;;;;;3.00;1.90;;;14.80;53.50;;;;;;4854348;29;20426;-82
2021/03/19 11:13:31;;;;;;;8.03;3.50;;;14.90;52.70;;;;;;4891743;29;20459;-81
2021/03/19 11:16:02;;;;;;;2.57;2.37;;;12.90;52.00;;;;;;4892456;29;20252;-81
2021/03/19 11:18:35;;;;;;;4.10;2.50;;;12.70;54.40;;;;;;4866087;29;20454;-81
2021/03/19 11:21:23;;;;;;;4.30;2.30;;;13.70;54.40;;;;;;4956120;28;20435;-81
2021/03/19 11:24:15;;;;;;;2.40;2.20;;;14.30;53.80;;;;;;4959434;28;20423;-81
2021/03/19 11:26:42;;;;;;;1.90;1.80;;;14.40;51.90;;;;;;4930332;28;20551;-81
2021/03/19 11:29:16;;;;;;;5.70;4.53;;;14.80;52.00;;;;;;4944329;28;21125;-82
2021/03/19 11:32:14;;;;;;;2.97;2.73;;;15.30;51.90;;;;;;4977620;28;20410;-82
2021/03/19 11:34:48;;;;;;;2.53;2.20;;;15.90;51.70;;;;;;5046213;28;20523;-82
2021/03/19 11:37:15;;;;;;;2.17;1.80;;;16.90;50.00;;;;;;5046663;28;20406;-82
2021/03/19 11:40:01;;;;;;;3.03;1.50;;;16.70;48.60;;;;;;5045339;28;21591;-82
2021/03/19 11:42:27;;;;;;;2.07;1.23;;;14.00;47.80;;;;;;5079639;28;20442;-81
2021/03/19 11:44:59;;;;;;;2.70;1.70;;;11.00;50.00;;;;;;5042532;28;21033;-81
2021/03/19 11:47:25;;;;;;;32.13;28.33;;;;;;;;;;5064445;28;21419;-81
2021/03/19 11:50:03;;;;;;;2.03;1.80;;;13.70;51.80;;;;;;5045123;28;20446;-81
2021/03/19 11:52:30;;;;;;;3.37;1.83;;;14.00;52.30;;;;;;5048447;28;21226;-83
2021/03/19 11:54:55;;;;;;;1.60;1.50;;;15.60;50.90;;;;;;5048772;28;20504;-83
2021/03/19 11:57:21;;;;;;;1.20;1.17;;;16.40;49.00;;;;;;5044379;28;20460;-83
2021/03/19 11:59:48;;;;;;;1.70;1.57;;;16.60;47.60;;;;;;5033638;28;20285;-83
2021/03/19 12:02:39;;;;;;;4.10;2.10;;;16.50;47.20;;;;;;5048758;28;20409;-80
2021/03/19 12:05:07;;;;;;;1.60;1.40;;;16.20;47.20;;;;;;5060465;28;21331;-80
2021/03/19 12:07:33;;;;;;;1.80;1.40;;;14.90;47.10;;;;;;5047598;28;20488;-80
2021/03/19 12:09:58;;;;;;;2.17;1.67;;;14.10;47.90;;;;;;5032162;28;20442;-81
2021/03/19 12:12:25;;;;;;;2.07;1.90;;;13.50;48.90;;;;;;5047817;28;20227;-81
2021/03/19 12:14:52;;;;;;;1.93;1.77;;;12.80;50.00;;;;;;5032271;28;20630;-81
2021/03/19 12:17:21;;;;;;;1.60;1.50;;;12.10;50.70;;;;;;5039314;28;20407;-81
2021/03/19 12:19:47;;;;;;;1.50;1.40;;;14.00;51.60;;;;;;5057272;28;20431;-81
2021/03/19 12:22:12;;;;;;;2.30;1.30;;;14.40;49.20;;;;;;5023110;28;20419;-81
2021/03/19 12:24:38;;;;;;;1.70;1.60;;;14.50;48.80;;;;;;5051612;28;20217;-81
2021/03/19 12:27:05;;;;;;;2.80;1.57;;;14.20;48.30;;;;;;5031419;28;20245;-81
2021/03/19 12:29:31;;;;;;;2.37;2.17;;;14.00;48.30;;;;;;5044335;28;20756;-81
2021/03/19 12:31:57;;;;;;;1.97;1.87;;;13.40;48.80;;;;;;5047061;28;20435;-81
2021/03/19 12:34:25;;;;;;;2.33;1.53;;;12.80;49.50;;;;;;5026896;28;20958;-80
2021/03/19 12:36:52;;;;;;;1.53;1.43;;;11.90;50.30;;;;;;5023811;28;20379;-81
2021/03/19 12:39:19;;;;;;;2.07;1.37;;;11.10;51.30;;;;;;5013040;28;20423;-83
2021/03/19 12:41:49;;;;;;;3.00;1.93;;;10.50;51.80;;;;;;5011846;28;20945;-81
2021/03/19 12:44:16;;;;;;;1.87;1.77;;;9.60;53.50;;;;;;5027502;28;21105;-81
2021/03/19 12:46:42;;;;;;;2.40;1.60;;;9.50;55.00;;;;;;5025146;28;20407;-82
2021/03/19 12:49:08;;;;;;;1.60;1.50;;;10.30;55.10;;;;;;5011382;28;20417;-82
2021/03/19 12:51:34;;;;;;;2.00;1.87;;;12.80;54.70;;;;;;5049832;28;20210;-82
2021/03/19 12:54:01;;;;;;;3.33;1.70;;;15.20;52.00;;;;;;5042691;28;20413;-82
2021/03/19 12:56:27;;;;;;;2.10;1.37;;;14.30;48.20;;;;;;5024317;28;20466;-82
2021/03/19 12:58:52;;;;;;;1.67;1.57;;;12.20;48.20;;;;;;5008517;28;20485;-82
2021/03/19 13:01:20;;;;;;;2.33;1.20;;;11.00;49.90;;;;;;5025046;28;20240;-82
2021/03/19 13:03:47;;;;;;;1.60;1.50;;;10.60;51.20;;;;;;5044295;28;20205;-81
2021/03/19 13:06:13;;;;;;;1.77;1.53;;;12.40;51.60;;;;;;5026753;28;20490;-82
2021/03/19 13:08:39;;;;;;;1.47;1.37;;;14.40;50.20;;;;;;5027703;28;20441;-82
2021/03/19 13:11:04;;;;;;;2.57;1.30;;;14.50;48.30;;;;;;5011400;28;23180;-82
2021/03/19 13:13:30;;;;;;;1.77;1.67;;;12.90;46.60;;;;;;5021511;28;20669;-82
2021/03/19 13:15:56;;;;;;;2.70;1.90;;;12.60;48.00;;;;;;5033790;28;20447;-82
2021/03/19 13:18:22;;;;;;;1.53;1.23;;;14.10;48.70;;;;;;5016344;28;20221;-81
2021/03/19 13:20:48;;;;;;;1.73;1.30;;;14.70;47.20;;;;;;5060223;28;20392;-82
2021/03/19 13:23:15;;;;;;;3.27;2.50;;;14.90;46.90;;;;;;5079278;28;20850;-81
2021/03/19 13:25:42;;;;;;;2.03;1.03;;;14.90;46.00;;;;;;5045671;28;20476;-81
2021/03/19 13:28:10;;;;;;;1.93;1.20;;;15.20;45.40;;;;;;5066672;28;20438;-82
2021/03/19 13:30:37;;;;;;;1.87;1.20;;;14.10;44.40;;;;;;5070965;28;20422;-82
2021/03/19 13:33:05;;;;;;;1.60;1.40;;;12.90;45.60;;;;;;5054235;28;20408;-81
2021/03/19 13:35:34;;;;;;;1.53;1.43;;;11.70;46.30;;;;;;5044171;28;20869;-81
2021/03/19 13:38:01;;;;;;;1.60;1.50;;;11.20;47.90;;;;;;5055234;28;20561;-81
2021/03/19 13:40:28;;;;;;;1.83;1.73;;;12.70;49.30;;;;;;5059689;28;20416;-81